createdAt,value
2022-08-07T00:00:18.520Z,1.25
2022-08-07T00:02:46.075Z,1.00
2022-08-07T00:05:13.810Z,1.00
2022-08-07T00:07:41.703Z,0.82
2022-08-07T00:10:26.075Z,1.73
2022-08-07T00:12:59.734Z,0.52
2022-08-07T00:15:37.768Z,1.70
2022-08-07T00:18:19.850Z,1.05
2022-08-07T00:21:03.508Z,0.77
2022-08-07T00:23:40.141Z,1.15
2022-08-07T00:26:12.868Z,1.20
2022-08-07T00:28:55.375Z,1.20
2022-08-07T00:31:37.539Z,1.30
2022-08-07T00:34:08.485Z,1.15
2022-08-07T00:36:42.775Z,0.98
2022-08-07T00:39:12.833Z,0.77
2022-08-07T00:42:02.096Z,0.93
2022-08-07T00:44:33.789Z,1.25
2022-08-07T00:47:06.452Z,0.77
2022-08-07T00:50:19.154Z,0.88
2022-08-07T00:52:33.166Z,2.10
2022-08-07T00:55:05.013Z,1.05
2022-08-07T00:57:38.495Z,0.77
2022-08-07T01:00:23.952Z,1.67
2022-08-07T01:02:52.344Z,0.70
2022-08-07T01:05:24.681Z,0.73
2022-08-07T01:07:51.950Z,1.50
2022-08-07T01:10:19.976Z,1.50
2022-08-07T01:12:53.977Z,1.00
2022-08-07T01:16:00.619Z,1.10
2022-08-07T01:18:11.273Z,1.65
2022-08-07T01:20:59.589Z,1.00
2022-08-07T01:23:35.733Z,1.53
2022-08-07T01:26:12.228Z,0.82
2022-08-07T01:28:46.340Z,1.05
2022-08-07T01:31:19.905Z,2.00
2022-08-07T01:33:54.006Z,4.35
2022-08-07T01:36:33.432Z,1.35
2022-08-07T01:39:01.841Z,0.70
2022-08-07T01:41:37.844Z,1.08
2022-08-07T01:44:06.530Z,1.60
2022-08-07T01:46:34.521Z,1.05
2022-08-07T01:49:02.402Z,1.10
2022-08-07T01:52:02.399Z,1.40
2022-08-07T01:54:32.664Z,0.90
2022-08-07T01:57:30.909Z,1.30
2022-08-07T02:00:13.243Z,0.90
2022-08-07T02:03:18.802Z,1.77
2022-08-07T02:05:59.642Z,1.20
2022-08-07T02:08:30.115Z,1.80
2022-08-07T02:11:00.752Z,2.25
2022-08-07T02:13:57.478Z,1.50
2022-08-07T02:16:28.816Z,1.55
2022-08-07T02:20:03.584Z,1.00
2022-08-07T02:21:57.725Z,1.27
2022-08-07T02:24:29.902Z,0.95
2022-08-07T02:27:01.237Z,1.52
2022-08-07T02:29:30.730Z,0.57
2022-08-07T02:32:00.982Z,1.33
2022-08-07T02:34:30.344Z,1.50
2022-08-07T02:37:00.942Z,1.20
2022-08-07T02:39:43.935Z,1.58
2022-08-07T02:42:18.897Z,1.60
2022-08-07T02:44:51.930Z,0.93
2022-08-07T02:47:23.560Z,1.95
2022-08-07T02:50:07.895Z,1.27
2022-08-07T02:52:41.840Z,0.88
2022-08-07T02:55:27.936Z,0.97
2022-08-07T02:58:13.533Z,1.13
2022-08-07T03:00:46.755Z,1.52
2022-08-07T03:03:22.632Z,1.42
2022-08-07T03:05:53.556Z,1.80
2022-08-07T03:08:26.941Z,1.60
2022-08-07T03:10:57.486Z,1.00
2022-08-07T03:13:25.578Z,2.58
2022-08-07T03:15:56.243Z,1.40
2022-08-07T03:18:34.834Z,1.00
2022-08-07T03:21:08.406Z,1.30
2022-08-07T03:24:19.835Z,1.43
2022-08-07T03:26:33.962Z,1.10
2022-08-07T03:29:05.695Z,1.20
2022-08-07T03:31:42.718Z,1.92
2022-08-07T03:34:18.758Z,1.02
2022-08-07T03:36:52.807Z,0.93
2022-08-07T03:39:59.851Z,2.17
2022-08-07T03:42:10.408Z,2.40
2022-08-07T03:44:38.792Z,1.58
2022-08-07T03:47:11.472Z,1.73
2022-08-07T03:49:42.469Z,0.82
2022-08-07T03:52:22.810Z,0.90
2022-08-07T03:55:06.593Z,2.10
2022-08-07T03:58:35.342Z,1.75
2022-08-07T04:00:29.293Z,1.73
2022-08-07T04:03:03.980Z,1.35
2022-08-07T04:05:40.430Z,1.52
2022-08-07T04:08:16.291Z,0.93
2022-08-07T04:10:53.931Z,1.15
2022-08-07T04:14:10.557Z,1.75
2022-08-07T04:16:31.397Z,1.08
2022-08-07T04:19:12.562Z,1.27
2022-08-07T04:21:48.197Z,0.95
2022-08-07T04:24:34.161Z,1.17
2022-08-07T04:27:06.335Z,1.60
2022-08-07T04:29:58.344Z,1.30
2022-08-07T04:32:34.528Z,1.33
2022-08-07T04:35:05.979Z,1.17
2022-08-07T04:38:00.978Z,1.00
2022-08-07T04:40:26.687Z,1.95
2022-08-07T04:43:01.329Z,2.17
2022-08-07T04:45:52.246Z,0.80
2022-08-07T04:48:55.522Z,1.83
2022-08-07T04:51:44.064Z,1.30
2022-08-07T04:54:36.819Z,1.70
2022-08-07T04:58:16.823Z,0.80
2022-08-07T05:00:39.503Z,1.80
2022-08-07T05:03:59.843Z,1.33
2022-08-07T05:06:19.989Z,2.15
2022-08-07T05:09:43.206Z,0.87
2022-08-07T05:12:15.618Z,0.88
2022-08-07T05:15:04.025Z,1.73
2022-08-07T05:17:51.569Z,1.02
2022-08-07T05:20:26.934Z,1.10
2022-08-07T05:22:59.723Z,1.48
2022-08-07T05:26:11.103Z,1.60
2022-08-07T05:28:23.115Z,1.10
2022-08-07T05:30:55.414Z,0.90
2022-08-07T05:33:24.051Z,1.20
2022-08-07T05:35:55.137Z,2.25
2022-08-07T05:38:58.373Z,2.13
2022-08-07T05:41:15.927Z,3.55
2022-08-07T05:44:08.580Z,1.70
2022-08-07T05:46:38.614Z,1.35
2022-08-07T05:49:12.543Z,2.42
2022-08-07T05:51:46.673Z,1.40
2022-08-07T05:54:30.971Z,0.88
2022-08-07T05:57:04.508Z,1.02
2022-08-07T05:59:55.568Z,1.37
2022-08-07T06:02:29.699Z,1.20
2022-08-07T06:05:07.506Z,1.80
2022-08-07T06:08:30.131Z,1.15
2022-08-07T06:10:26.524Z,1.30
2022-08-07T06:12:53.985Z,2.00
2022-08-07T06:15:39.400Z,1.40
2022-08-07T06:18:12.097Z,1.65
2022-08-07T06:20:51.074Z,1.90
2022-08-07T06:24:37.160Z,1.45
2022-08-07T06:26:16.885Z,3.53
2022-08-07T06:28:56.988Z,1.65
2022-08-07T06:31:46.924Z,1.75
2022-08-07T06:34:13.950Z,1.60
2022-08-07T06:36:41.966Z,2.90
2022-08-07T06:40:17.917Z,2.25
2022-08-07T06:42:37.641Z,1.35
2022-08-07T06:45:11.216Z,0.93
2022-08-07T06:47:57.698Z,3.55
2022-08-07T06:50:26.104Z,2.00
2022-08-07T06:52:56.627Z,1.10
2022-08-07T06:55:53.454Z,2.97
2022-08-07T06:58:17.152Z,0.90
2022-08-07T07:00:52.996Z,2.55
2022-08-07T07:03:26.307Z,1.37
2022-08-07T07:06:10.968Z,1.53
2022-08-07T07:08:39.647Z,1.50
2022-08-07T07:12:06.947Z,2.45
2022-08-07T07:14:03.314Z,1.20
2022-08-07T07:16:45.219Z,2.47
2022-08-07T07:19:57.894Z,1.88
2022-08-07T07:22:36.533Z,1.73
2022-08-07T07:26:34.427Z,3.60
2022-08-07T07:28:48.467Z,1.90
2022-08-07T07:31:44.681Z,2.33
2022-08-07T07:34:22.675Z,3.13
2022-08-07T07:37:14.610Z,2.83
2022-08-07T07:39:55.986Z,2.90
2022-08-07T07:42:32.885Z,2.53
2022-08-07T07:45:05.955Z,2.70
2022-08-07T07:47:42.869Z,5.25
2022-08-07T07:50:34.815Z,11.63
2022-08-07T07:53:13.663Z,9.98
2022-08-07T07:55:57.937Z,16.10
2022-08-07T07:58:40.269Z,19.83
2022-08-07T08:02:04.782Z,39.70
2022-08-07T08:04:09.966Z,44.60
2022-08-07T08:06:52.280Z,52.28
2022-08-07T08:09:24.286Z,43.85
2022-08-07T08:12:02.102Z,32.88
2022-08-07T08:14:36.568Z,52.83
2022-08-07T08:17:55.434Z,47.58
2022-08-07T08:20:17.446Z,39.15
2022-08-07T08:23:10.384Z,38.17
2022-08-07T08:26:03.384Z,53.03
2022-08-07T08:28:39.242Z,71.18
2022-08-07T08:31:59.105Z,73.57
2022-08-07T08:34:26.615Z,62.10
2022-08-07T08:36:58.750Z,53.55
2022-08-07T08:39:39.096Z,50.55
2022-08-07T08:42:41.116Z,81.80
2022-08-07T08:45:19.700Z,52.08
2022-08-07T08:48:10.822Z,44.08
2022-08-07T08:50:52.426Z,42.53
2022-08-07T08:53:30.267Z,30.83
2022-08-07T08:56:05.156Z,36.25
2022-08-07T08:58:50.676Z,31.90
2022-08-07T09:01:40.112Z,32.37
2022-08-07T09:04:28.756Z,25.67
2022-08-07T09:07:22.956Z,19.50
2022-08-07T09:10:11.568Z,23.17
2022-08-07T09:12:54.324Z,26.42
2022-08-07T09:16:23.532Z,34.65
2022-08-07T09:18:53.168Z,36.58
2022-08-07T09:22:10.044Z,33.00
2022-08-07T09:24:55.432Z,27.13
2022-08-07T09:27:38.382Z,29.33
2022-08-07T09:30:27.972Z,44.17
2022-08-07T09:33:40.922Z,50.28
2022-08-07T09:36:37.220Z,36.03
2022-08-07T09:39:55.560Z,41.70
2022-08-07T09:42:43.814Z,23.55
2022-08-07T09:47:26.379Z,27.77
2022-08-07T09:50:01.814Z,18.30
2022-08-07T09:52:10.856Z,20.83
2022-08-07T09:55:02.283Z,24.77
2022-08-07T09:57:51.610Z,21.10
2022-08-07T10:00:54.587Z,20.15
2022-08-07T10:04:06.047Z,18.87
2022-08-07T10:06:58.850Z,27.40
2022-08-07T10:10:01.005Z,51.75
2022-08-07T10:12:39.808Z,75.70
2022-08-07T10:15:44.603Z,57.37
2022-08-07T10:18:26.345Z,56.65
2022-08-07T10:21:50.870Z,38.72
2022-08-07T10:24:39.632Z,44.45
2022-08-07T10:27:30.136Z,33.15
2022-08-07T10:30:49.026Z,34.63
2022-08-07T10:34:06.938Z,27.67
2022-08-07T10:37:26.377Z,21.98
2022-08-07T10:40:13.264Z,21.95
2022-08-07T10:43:06.839Z,15.02
2022-08-07T10:45:58.324Z,15.90
2022-08-07T10:48:54.060Z,13.03
2022-08-07T10:51:57.705Z,7.95
2022-08-07T10:55:02.007Z,10.63
2022-08-07T10:58:17.909Z,11.35
2022-08-07T11:01:35.490Z,7.13
2022-08-07T11:04:39.120Z,7.45
2022-08-07T11:07:56.220Z,7.25
2022-08-07T11:10:27.516Z,4.40
2022-08-07T11:13:04.449Z,5.55
2022-08-07T11:15:39.600Z,8.35
2022-08-07T11:18:35.583Z,8.10
2022-08-07T11:21:40.861Z,6.15
2022-08-07T11:24:33.490Z,2.92
2022-08-07T11:27:33.722Z,5.28
2022-08-07T11:30:19.310Z,7.97
2022-08-07T11:33:59.112Z,6.90
2022-08-07T11:36:52.461Z,11.18
2022-08-07T11:40:03.921Z,8.00
2022-08-07T11:43:18.908Z,12.53
2022-08-07T11:46:48.807Z,5.68
2022-08-07T11:50:25.174Z,5.90
2022-08-07T11:53:05.062Z,6.22
2022-08-07T11:56:27.237Z,5.43
2022-08-07T12:00:10.779Z,4.85
2022-08-07T12:02:30.737Z,5.65
2022-08-07T12:05:41.099Z,3.25
2022-08-07T12:08:25.646Z,3.67
2022-08-07T12:11:20.428Z,3.85
2022-08-07T12:14:11.231Z,2.42
2022-08-07T12:16:54.874Z,5.80
2022-08-07T12:19:56.354Z,3.47
2022-08-07T12:24:04.747Z,6.85
2022-08-07T12:26:49.411Z,5.20
2022-08-07T12:29:37.923Z,7.97
2022-08-07T12:32:22.291Z,4.20
2022-08-07T12:34:56.271Z,3.63
2022-08-07T12:37:28.617Z,2.15
2022-08-07T12:43:58.776Z,3.33
2022-08-07T12:46:51.812Z,3.35
2022-08-07T12:49:49.118Z,1.02
2022-08-07T12:52:36.663Z,1.88
2022-08-07T12:55:41.280Z,0.93
2022-08-07T12:58:20.035Z,1.40
2022-08-07T13:01:07.748Z,1.88
2022-08-07T13:04:09.797Z,1.60
2022-08-07T13:07:08.778Z,0.93
2022-08-07T13:10:39.403Z,1.60
2022-08-07T13:13:48.669Z,3.17
2022-08-07T13:17:02.335Z,0.90
2022-08-07T13:19:52.773Z,0.95
2022-08-07T13:23:09.880Z,5.03
2022-08-07T13:26:21.729Z,1.60
2022-08-07T13:29:22.629Z,2.92
2022-08-07T13:32:23.525Z,1.00
2022-08-07T13:35:11.380Z,1.67
2022-08-07T13:37:58.681Z,2.55
2022-08-07T13:40:56.899Z,3.90
2022-08-07T13:43:28.852Z,2.03
2022-08-07T13:46:21.117Z,2.53
2022-08-07T13:48:59.376Z,1.77
2022-08-07T13:52:23.034Z,1.10
2022-08-07T13:54:22.652Z,3.95
2022-08-07T13:56:59.530Z,2.72
2022-08-07T13:59:32.788Z,0.80
2022-08-07T14:02:08.641Z,1.03
2022-08-07T14:04:59.432Z,1.38
2022-08-07T14:07:38.126Z,1.33
2022-08-07T14:10:27.968Z,0.88
2022-08-07T14:13:01.518Z,0.90
2022-08-07T14:15:37.672Z,0.73
2022-08-07T14:18:33.265Z,1.30
2022-08-07T14:22:03.295Z,0.90
2022-08-07T14:24:42.018Z,1.15
2022-08-07T14:28:09.951Z,0.73
2022-08-07T14:30:11.697Z,1.20
2022-08-07T14:32:46.517Z,2.15
2022-08-07T14:38:26.721Z,0.70
2022-08-07T14:41:14.884Z,2.88
2022-08-07T14:43:57.107Z,2.25
2022-08-07T14:46:31.995Z,6.57
2022-08-07T14:52:03.027Z,2.80
2022-08-07T14:54:42.186Z,3.22
2022-08-07T15:00:08.253Z,3.45
2022-08-07T15:02:37.418Z,2.75
2022-08-07T15:13:37.193Z,1.10
2022-08-07T15:16:11.471Z,2.03
2022-08-07T15:18:46.499Z,1.88
2022-08-07T15:21:44.023Z,2.45
2022-08-07T15:27:15.437Z,1.75
2022-08-07T15:30:09.463Z,2.47
2022-08-07T15:32:39.990Z,2.30
2022-08-07T15:36:04.894Z,1.45
2022-08-07T15:38:30.011Z,1.73
2022-08-07T15:44:10.349Z,2.58
2022-08-07T15:46:51.658Z,1.00
2022-08-07T15:49:25.402Z,1.48
2022-08-07T15:52:15.455Z,1.67
2022-08-07T15:54:47.728Z,1.27
2022-08-07T15:57:39.649Z,1.83
2022-08-07T16:00:32.196Z,2.65
2022-08-07T16:03:04.474Z,1.35
2022-08-07T16:05:33.337Z,3.38
2022-08-07T16:08:32.990Z,1.88
2022-08-07T16:11:30.356Z,0.90
2022-08-07T16:15:55.047Z,1.25
2022-08-07T16:18:49.902Z,1.20
2022-08-07T16:22:04.113Z,1.40
2022-08-07T16:24:52.723Z,1.93
2022-08-07T16:27:40.432Z,2.00
2022-08-07T16:30:30.835Z,4.20
2022-08-07T16:34:02.721Z,2.83
2022-08-07T16:36:23.080Z,1.27
2022-08-07T16:39:40.708Z,1.95
2022-08-07T16:42:51.209Z,1.50
2022-08-07T16:46:40.441Z,2.10
2022-08-07T16:50:20.804Z,2.40
2022-08-07T16:54:01.159Z,2.53
2022-08-07T16:56:33.006Z,2.70
2022-08-07T16:59:18.059Z,5.53
2022-08-07T17:02:09.610Z,1.52
2022-08-07T17:04:59.346Z,2.10
2022-08-07T17:07:55.626Z,3.22
2022-08-07T17:10:54.217Z,2.67
2022-08-07T17:14:18.409Z,1.38
2022-08-07T17:16:55.595Z,1.48
2022-08-07T17:20:01.736Z,3.33
2022-08-07T17:22:57.494Z,2.63
2022-08-07T17:25:51.699Z,1.83
2022-08-07T17:29:04.699Z,1.73
2022-08-07T17:32:02.823Z,2.90
2022-08-07T17:35:40.725Z,1.83
2022-08-07T17:38:09.353Z,1.60
2022-08-07T17:42:00.632Z,4.63
2022-08-07T17:44:35.067Z,6.28
2022-08-07T17:47:38.644Z,4.78
2022-08-07T17:50:16.768Z,3.10
2022-08-07T17:53:07.420Z,1.77
2022-08-07T17:56:06.976Z,2.53
2022-08-07T17:58:57.319Z,2.27
2022-08-07T18:01:50.308Z,1.98
2022-08-07T18:04:52.238Z,1.03
2022-08-07T18:07:52.948Z,4.60
2022-08-07T18:11:53.740Z,2.03
2022-08-07T18:13:52.916Z,2.23
2022-08-07T18:16:57.829Z,4.10
2022-08-07T18:21:10.479Z,2.97
2022-08-07T18:22:50.267Z,1.55
2022-08-07T18:25:40.116Z,2.28
2022-08-07T18:28:35.641Z,2.53
2022-08-07T18:31:18.509Z,2.25
2022-08-07T18:34:37.854Z,2.33
2022-08-07T18:38:59.262Z,1.98
2022-08-07T18:40:42.206Z,2.22
2022-08-07T18:43:36.888Z,1.95
2022-08-07T18:46:27.379Z,1.30
2022-08-07T18:50:30.475Z,1.60
2022-08-07T18:52:53.671Z,1.65
2022-08-07T18:55:57.179Z,2.35
2022-08-07T18:59:07.985Z,2.78
2022-08-07T19:02:34.345Z,1.30
2022-08-07T19:05:16.030Z,1.90
2022-08-07T19:08:10.896Z,1.48
2022-08-07T19:10:55.431Z,1.13
2022-08-07T19:13:45.226Z,1.80
2022-08-07T19:17:06.630Z,1.92
2022-08-07T19:20:06.141Z,1.40
2022-08-07T19:23:59.021Z,1.80
2022-08-07T19:26:25.295Z,1.20
2022-08-07T19:31:04.085Z,1.52
2022-08-07T19:32:07.732Z,2.65
2022-08-07T19:34:43.939Z,1.30
2022-08-07T19:37:18.103Z,0.90
2022-08-07T19:40:01.849Z,1.65
2022-08-07T19:42:40.423Z,1.27
2022-08-07T19:46:05.959Z,1.85
2022-08-07T19:48:19.005Z,1.60
2022-08-07T19:50:53.515Z,1.77
2022-08-07T19:54:31.420Z,2.75
2022-08-07T19:57:51.781Z,1.98
2022-08-07T19:59:00.791Z,1.63
2022-08-07T20:01:56.288Z,2.35
2022-08-07T20:04:42.138Z,1.90
2022-08-07T20:07:23.858Z,2.42
2022-08-07T20:10:35.891Z,1.50
2022-08-07T20:12:48.603Z,1.23
2022-08-07T20:15:22.378Z,3.38
2022-08-07T20:17:56.306Z,2.55
2022-08-07T20:20:31.528Z,1.13
2022-08-07T20:23:10.794Z,2.07
2022-08-07T20:25:53.122Z,2.80
2022-08-07T20:28:29.319Z,4.03
2022-08-07T20:30:58.187Z,2.45
2022-08-07T20:33:38.319Z,3.15
2022-08-07T20:36:09.046Z,3.40
2022-08-07T20:38:59.557Z,2.70
2022-08-07T20:41:34.015Z,3.42
2022-08-07T20:44:12.441Z,2.47
2022-08-07T20:46:44.151Z,3.42
2022-08-07T20:49:57.940Z,2.67
2022-08-07T20:52:16.722Z,2.70
2022-08-07T20:54:54.979Z,1.90
2022-08-07T20:57:28.145Z,2.67
2022-08-07T21:00:09.235Z,2.47
2022-08-07T21:03:04.296Z,2.55
2022-08-07T21:05:57.057Z,1.70
2022-08-07T21:08:44.156Z,2.05
2022-08-07T21:11:18.131Z,3.38
2022-08-07T21:14:31.656Z,1.85
2022-08-07T21:18:03.694Z,1.90
2022-08-07T21:19:51.637Z,1.98
2022-08-07T21:22:30.363Z,2.35
2022-08-07T21:25:38.800Z,1.93
2022-08-07T21:28:48.982Z,2.05
2022-08-07T21:32:41.919Z,2.30
2022-08-07T21:35:01.347Z,2.70
2022-08-07T21:37:58.737Z,2.10
2022-08-07T21:41:10.916Z,2.20
2022-08-07T21:44:28.560Z,2.60
2022-08-07T21:47:07.413Z,1.98
2022-08-07T21:50:04.990Z,2.88
2022-08-07T21:53:00.035Z,1.85
2022-08-07T21:56:04.076Z,1.42
2022-08-07T21:59:14.248Z,2.60
2022-08-07T22:02:11.523Z,2.28
2022-08-07T22:04:51.384Z,3.33
2022-08-07T22:07:31.695Z,2.20
2022-08-07T22:10:14.536Z,1.70
2022-08-07T22:12:59.700Z,1.88
2022-08-07T22:16:42.549Z,3.20
2022-08-07T22:18:47.257Z,2.03
2022-08-07T22:21:26.095Z,1.48
2022-08-07T22:24:22.630Z,3.10
2022-08-07T22:27:17.258Z,2.30
2022-08-07T22:29:58.155Z,2.53
2022-08-07T22:33:04.390Z,1.92
2022-08-07T22:36:01.110Z,2.05
2022-08-07T22:38:48.837Z,1.70
2022-08-07T22:42:04.142Z,1.83
2022-08-07T22:44:58.133Z,2.33
2022-08-07T22:48:13.539Z,1.37
2022-08-07T22:51:36.688Z,2.05
2022-08-07T22:54:32.798Z,1.90
2022-08-07T22:57:31.649Z,1.85
2022-08-07T23:00:14.667Z,1.70
2022-08-07T23:03:12.557Z,2.95
2022-08-07T23:06:08.955Z,2.50
2022-08-07T23:10:05.050Z,1.52
2022-08-07T23:12:59.733Z,2.50
2022-08-07T23:16:46.293Z,2.17
2022-08-07T23:20:05.464Z,2.63
2022-08-07T23:22:48.613Z,2.30
2022-08-07T23:25:47.911Z,2.25
2022-08-07T23:28:53.320Z,2.13
2022-08-07T23:32:48.919Z,2.55
2022-08-07T23:34:46.730Z,1.92
2022-08-07T23:38:01.309Z,1.42
2022-08-07T23:40:50.919Z,2.78
2022-08-07T23:43:55.133Z,1.98
2022-08-07T23:46:59.596Z,1.97
2022-08-07T23:49:42.087Z,1.88
2022-08-07T23:53:08.846Z,1.67
2022-08-07T23:56:13.931Z,1.45
